Taree, Australia
Current Conditions -  °F | °C
As of 5:30 PM on Thursday 27 Nov 2014 (Local Time) from YWLM Reporting Station
Broken Clouds Broken Clouds  
Wind Chill: 68°   Ceiling: 4000
Heat Index: 68°   Visibility: 6mi
Dew Point: 59°   Wind: 18mph
Humidity: 73%   Direction: 140°SE
Pressure: 30.15"   Gusts: NA
Location:  31.91°S, 152.46°E
Report Text: YWLM 270630Z 14016KT 9999 SCT020 BKN040 20/15 Q1021
Loading
Personal Weather Stations






























Interactive Weather Map New forecast layout! Learn more

10-Day Weather Forecast

Advertisements
Track Severe Weather on mobile